Time;durP1;ratioP1;P1;durP2;ratioP2;P2;SDS_P1;SDS_P2;PMS_P1;PMS_P2;Temp;Humidity;BMP_temperature;BMP_pressure;BME280_temperature;BME280_humidity;BME280_pressure;Samples;Min_cycle;Max_cycle;Signal;HPM_P1;HPM_P2
2024/01/31 00:01:34;;;;;;;19.08;3.10;;;7.70;99.90;;;;;;5055844;28;20028;-78
2024/01/31 00:04:00;;;;;;;27.42;3.88;;;7.70;99.90;;;;;;5057515;28;20044;-76
2024/01/31 00:06:25;;;;;;;28.50;3.58;;;7.60;99.90;;;;;;5055241;28;20029;-77
2024/01/31 00:08:51;;;;;;;21.40;2.75;;;7.60;99.90;;;;;;5054454;28;20036;-76
2024/01/31 00:11:17;;;;;;;24.63;2.80;;;7.50;99.90;;;;;;5055564;28;20083;-77
2024/01/31 00:13:42;;;;;;;19.23;2.55;;;7.60;99.90;;;;;;5055441;28;20417;-75
2024/01/31 00:16:08;;;;;;;12.90;2.42;;;7.60;99.90;;;;;;5054301;28;20024;-75
2024/01/31 00:18:34;;;;;;;21.38;2.65;;;7.50;99.90;;;;;;5053090;28;20029;-74
2024/01/31 00:21:00;;;;;;;21.10;2.88;;;7.60;99.90;;;;;;5054143;28;20091;-76
2024/01/31 00:23:25;;;;;;;15.38;2.60;;;7.50;99.90;;;;;;5053981;28;20029;-76
2024/01/31 00:25:51;;;;;;;17.55;2.40;;;7.50;99.90;;;;;;5054149;28;20033;-73
2024/01/31 00:28:17;;;;;;;18.50;2.75;;;7.50;99.90;;;;;;5054113;28;20252;-75
2024/01/31 00:30:43;;;;;;;16.73;2.50;;;7.50;99.90;;;;;;5053927;28;20388;-75
2024/01/31 00:33:09;;;;;;;22.27;2.85;;;7.50;99.90;;;;;;5053890;28;20036;-74
2024/01/31 00:35:34;;;;;;;29.17;3.70;;;7.50;99.90;;;;;;5054034;28;20021;-74
2024/01/31 00:38:00;;;;;;;19.42;2.90;;;7.40;99.90;;;;;;5052534;28;20499;-74
2024/01/31 00:40:26;;;;;;;24.17;3.15;;;7.40;99.90;;;;;;5054765;28;20072;-78
2024/01/31 00:42:52;;;;;;;23.77;2.65;;;7.40;99.90;;;;;;5055371;28;20033;-76
2024/01/31 00:45:17;;;;;;;31.05;3.60;;;7.40;99.90;;;;;;5054854;28;20029;-77
2024/01/31 00:47:43;;;;;;;25.27;2.95;;;7.40;99.90;;;;;;5055053;28;20044;-77
2024/01/31 00:50:14;;;;;;;25.15;2.97;;;7.30;99.90;;;;;;5056121;28;20483;-76
2024/01/31 00:52:41;;;;;;;25.63;3.13;;;7.20;99.90;;;;;;5055031;28;20028;-77
2024/01/31 00:55:07;;;;;;;21.42;3.15;;;7.40;99.90;;;;;;5057099;28;20048;-77
2024/01/31 00:57:33;;;;;;;20.88;3.15;;;7.40;99.90;;;;;;5056420;28;20104;-78
2024/01/31 00:59:59;;;;;;;20.52;3.00;;;7.40;99.90;;;;;;5056391;28;20472;-77
2024/01/31 01:02:25;;;;;;;28.38;3.65;;;7.30;99.90;;;;;;5052399;28;20064;-76
2024/01/31 01:04:52;;;;;;;24.13;3.08;;;7.30;99.90;;;;;;5054293;28;20024;-77
2024/01/31 01:07:18;;;;;;;15.80;2.83;;;7.30;99.90;;;;;;5053926;28;20440;-76
2024/01/31 01:09:43;;;;;;;26.63;3.00;;;7.30;99.90;;;;;;5053737;28;20048;-73
2024/01/31 01:12:09;;;;;;;28.27;3.00;;;7.30;99.90;;;;;;5053431;28;20040;-74
2024/01/31 01:14:35;;;;;;;25.30;3.10;;;7.30;99.90;;;;;;5053454;28;20028;-74
2024/01/31 01:17:00;;;;;;;23.25;3.67;;;7.30;99.90;;;;;;5052928;28;20044;-75
2024/01/31 01:19:26;;;;;;;19.92;2.63;;;7.30;99.90;;;;;;5053441;28;20029;-75
2024/01/31 01:21:52;;;;;;;22.17;2.40;;;7.30;99.90;;;;;;5053634;28;20033;-75
2024/01/31 01:24:18;;;;;;;23.38;2.25;;;7.20;99.90;;;;;;5053419;28;20251;-75
2024/01/31 01:26:43;;;;;;;18.05;3.10;;;7.30;99.90;;;;;;5053566;28;20147;-73
2024/01/31 01:29:09;;;;;;;17.50;1.85;;;7.20;99.90;;;;;;5053296;28;20496;-74
2024/01/31 01:31:34;;;;;;;16.48;1.90;;;7.30;99.90;;;;;;5051077;28;20025;-75
2024/01/31 01:34:00;;;;;;;15.82;2.35;;;7.20;99.90;;;;;;5053064;28;20021;-74
2024/01/31 01:36:26;;;;;;;11.32;1.42;;;7.20;99.90;;;;;;5053388;28;20056;-77
2024/01/31 01:38:52;;;;;;;17.40;1.80;;;7.20;99.90;;;;;;5052970;28;20032;-74
2024/01/31 01:41:17;;;;;;;9.07;1.48;;;7.20;99.90;;;;;;5052868;28;20047;-75
2024/01/31 01:43:43;;;;;;;11.35;1.60;;;7.20;99.90;;;;;;5053906;28;20063;-77
2024/01/31 01:46:20;;;;;;;10.98;1.90;;;7.30;99.90;;;;;;5055311;28;20040;-77
2024/01/31 01:48:47;;;;;;;12.38;2.00;;;7.20;99.90;;;;;;5055515;28;20078;-79
2024/01/31 01:51:18;;;;;;;12.80;1.75;;;7.00;99.90;;;;;;5054638;28;20036;-76
2024/01/31 01:53:45;;;;;;;14.93;1.75;;;7.00;99.90;;;;;;5053469;28;20503;-76
2024/01/31 01:56:13;;;;;;;12.15;1.50;;;6.90;99.90;;;;;;5053370;28;20499;-76
2024/01/31 01:58:40;;;;;;;11.05;1.35;;;6.90;99.90;;;;;;5052720;28;20400;-76
2024/01/31 02:01:08;;;;;;;9.50;1.40;;;6.80;99.90;;;;;;5053333;28;20099;-77
2024/01/31 02:03:35;;;;;;;7.47;1.33;;;6.80;99.90;;;;;;5053167;28;20029;-76
2024/01/31 02:06:01;;;;;;;15.80;1.85;;;6.80;99.90;;;;;;5053115;28;20463;-77
2024/01/31 02:08:27;;;;;;;11.73;1.90;;;6.80;99.90;;;;;;5052344;28;20017;-76
2024/01/31 02:10:53;;;;;;;9.07;1.38;;;6.70;99.90;;;;;;5052657;28;20053;-77
2024/01/31 02:13:18;;;;;;;10.70;1.40;;;6.60;99.90;;;;;;5052547;28;20507;-75
2024/01/31 02:15:57;;;;;;;15.75;1.70;;;6.60;99.90;;;;;;5052706;28;20423;-75
2024/01/31 02:18:24;;;;;;;13.27;2.10;;;6.70;99.90;;;;;;5052230;28;20032;-74
2024/01/31 02:20:50;;;;;;;12.93;2.28;;;6.70;99.90;;;;;;5052492;28;20157;-74
2024/01/31 02:23:16;;;;;;;13.65;2.10;;;6.60;99.90;;;;;;5052449;28;20025;-76
2024/01/31 02:25:41;;;;;;;11.70;1.98;;;6.60;99.90;;;;;;5052219;28;20438;-75
2024/01/31 02:28:07;;;;;;;13.75;1.90;;;6.60;99.90;;;;;;5053642;28;20025;-77
2024/01/31 02:30:33;;;;;;;16.90;1.85;;;6.60;99.90;;;;;;5054890;28;20450;-76
2024/01/31 02:32:58;;;;;;;17.02;2.63;;;6.60;99.90;;;;;;5055625;28;20032;-77
2024/01/31 02:35:24;;;;;;;13.98;1.88;;;6.60;99.90;;;;;;5053299;28;20057;-74
2024/01/31 02:37:50;;;;;;;10.50;1.77;;;6.60;99.90;;;;;;5052012;28;20108;-74
2024/01/31 02:40:16;;;;;;;18.67;2.45;;;6.70;99.90;;;;;;5052773;28;20029;-77
2024/01/31 02:42:43;;;;;;;14.48;1.60;;;6.60;99.90;;;;;;5056130;28;20025;-77
2024/01/31 02:45:08;;;;;;;16.60;1.85;;;6.60;99.90;;;;;;5057485;28;20024;-77
2024/01/31 02:47:34;;;;;;;14.13;1.58;;;6.60;99.90;;;;;;5057033;28;20586;-77
2024/01/31 02:50:03;;;;;;;19.83;1.58;;;6.60;99.90;;;;;;5057992;28;20043;-77
2024/01/31 02:52:29;;;;;;;15.02;2.13;;;6.60;99.90;;;;;;5057270;28;20036;-77
2024/01/31 02:54:55;;;;;;;17.33;1.90;;;6.60;99.90;;;;;;5058316;28;20025;-77
2024/01/31 02:57:20;;;;;;;18.45;2.00;;;6.70;99.90;;;;;;5058772;28;20361;-78
2024/01/31 02:59:46;;;;;;;15.90;1.90;;;6.80;99.90;;;;;;5057962;28;20036;-76
2024/01/31 03:02:15;;;;;;;18.13;2.53;;;6.70;99.90;;;;;;5056862;28;20039;-76
2024/01/31 03:04:41;;;;;;;20.25;2.47;;;6.60;99.90;;;;;;5056562;28;20017;-75
2024/01/31 03:07:06;;;;;;;17.73;2.17;;;6.70;99.90;;;;;;5056221;28;20392;-75
2024/01/31 03:09:32;;;;;;;19.77;2.45;;;6.70;99.90;;;;;;5058104;28;20021;-77
2024/01/31 03:11:57;;;;;;;16.67;2.33;;;6.70;99.90;;;;;;5057409;28;20036;-77
2024/01/31 03:14:23;;;;;;;30.90;3.22;;;6.60;99.90;;;;;;5057962;28;20029;-77
2024/01/31 03:16:48;;;;;;;28.73;2.75;;;6.70;99.90;;;;;;5058078;28;20044;-77
2024/01/31 03:19:15;;;;;;;20.58;2.90;;;6.60;99.90;;;;;;5058976;28;20029;-77
2024/01/31 03:21:41;;;;;;;15.55;2.38;;;6.60;99.90;;;;;;5056210;28;20044;-76
2024/01/31 03:24:06;;;;;;;15.63;2.65;;;6.50;99.90;;;;;;5056878;28;20425;-75
2024/01/31 03:26:32;;;;;;;20.10;2.90;;;6.50;99.90;;;;;;5056525;28;20021;-77
2024/01/31 03:29:01;;;;;;;25.25;2.88;;;6.50;99.90;;;;;;5053580;28;20071;-76
2024/01/31 03:31:27;;;;;;;24.38;2.33;;;6.40;99.90;;;;;;5055663;28;20116;-75
2024/01/31 03:33:53;;;;;;;28.85;2.70;;;6.40;99.90;;;;;;5055665;28;20013;-75
2024/01/31 03:36:18;;;;;;;24.35;2.90;;;6.40;99.90;;;;;;5055733;28;20086;-77
2024/01/31 03:38:44;;;;;;;24.20;2.80;;;6.40;99.90;;;;;;5062587;28;20036;-73
2024/01/31 03:41:10;;;;;;;26.50;3.08;;;6.50;99.90;;;;;;5099396;28;20043;-74
2024/01/31 03:43:35;;;;;;;21.60;2.28;;;6.50;99.90;;;;;;5098443;28;20080;-74
2024/01/31 03:46:05;;;;;;;22.83;2.58;;;6.50;99.90;;;;;;5097736;28;20029;-75
2024/01/31 03:48:31;;;;;;;28.00;3.05;;;6.40;99.90;;;;;;5095379;28;20039;-75
2024/01/31 03:50:58;;;;;;;23.77;2.80;;;6.40;99.90;;;;;;5096273;28;20028;-73
2024/01/31 03:53:24;;;;;;;24.48;2.40;;;6.40;99.90;;;;;;5081748;28;20033;-76
2024/01/31 03:55:50;;;;;;;20.17;2.50;;;6.40;99.90;;;;;;5090725;28;20044;-76
2024/01/31 03:58:16;;;;;;;25.10;3.45;;;6.40;99.90;;;;;;5088447;28;20032;-75
2024/01/31 04:00:42;;;;;;;27.58;4.22;;;6.50;99.90;;;;;;5086037;28;20025;-76
2024/01/31 04:03:07;;;;;;;19.20;3.15;;;6.40;99.90;;;;;;5094233;28;20050;-75
2024/01/31 04:05:33;;;;;;;18.05;2.60;;;6.40;99.90;;;;;;5098779;28;20033;-75
2024/01/31 04:07:59;;;;;;;35.97;2.78;;;6.40;99.90;;;;;;5096353;28;20041;-75
2024/01/31 04:10:24;;;;;;;23.48;2.95;;;6.40;99.90;;;;;;5086537;28;20028;-74
2024/01/31 04:12:50;;;;;;;22.92;3.17;;;6.30;99.90;;;;;;5074432;28;20062;-75
2024/01/31 04:15:16;;;;;;;22.02;3.20;;;6.40;99.90;;;;;;5074055;28;20031;-75
2024/01/31 04:17:42;;;;;;;24.45;3.10;;;6.40;99.90;;;;;;5074340;28;20070;-74
2024/01/31 04:20:09;;;;;;;28.70;3.72;;;6.40;99.90;;;;;;5074694;28;20033;-73
2024/01/31 04:22:34;;;;;;;29.20;3.40;;;6.40;99.90;;;;;;5077795;28;20020;-74
2024/01/31 04:25:00;;;;;;;27.95;3.40;;;6.40;99.90;;;;;;5076506;28;20020;-75
2024/01/31 04:27:26;;;;;;;16.92;2.88;;;6.50;99.90;;;;;;5073415;28;20028;-75
2024/01/31 04:29:51;;;;;;;30.70;2.50;;;6.40;99.90;;;;;;5073314;28;20112;-76
2024/01/31 04:32:17;;;;;;;26.65;3.67;;;6.50;99.90;;;;;;5074103;28;20135;-75
2024/01/31 04:34:42;;;;;;;19.95;2.72;;;6.50;99.90;;;;;;5073795;28;20025;-76
2024/01/31 04:37:08;;;;;;;30.25;4.18;;;6.50;99.90;;;;;;5073513;28;20036;-76
2024/01/31 04:39:35;;;;;;;23.98;3.38;;;6.50;99.90;;;;;;5072627;28;20032;-76
2024/01/31 04:42:01;;;;;;;23.70;3.22;;;6.40;99.90;;;;;;5074833;28;20146;-73
2024/01/31 04:44:27;;;;;;;20.50;2.65;;;6.50;99.90;;;;;;5077185;28;20051;-73
2024/01/31 04:46:53;;;;;;;27.52;3.25;;;6.50;99.90;;;;;;5074727;28;20075;-75
2024/01/31 04:49:18;;;;;;;29.25;3.47;;;6.50;99.90;;;;;;5073458;28;20051;-75
2024/01/31 04:51:44;;;;;;;25.42;3.20;;;6.60;99.90;;;;;;5073698;28;20032;-75
2024/01/31 04:54:09;;;;;;;22.58;3.58;;;6.60;99.90;;;;;;5074192;28;20052;-76
2024/01/31 04:56:36;;;;;;;31.55;4.18;;;6.60;99.90;;;;;;5073913;28;20387;-75
2024/01/31 04:59:01;;;;;;;22.45;3.10;;;6.60;99.90;;;;;;5071956;28;20033;-77
2024/01/31 05:01:28;;;;;;;24.50;3.67;;;6.60;99.90;;;;;;5057292;28;20033;-78
2024/01/31 05:03:57;;;;;;;23.08;3.08;;;6.70;99.90;;;;;;5060697;28;20028;-76
2024/01/31 05:06:23;;;;;;;22.38;3.03;;;6.70;99.90;;;;;;5058379;28;20063;-77
2024/01/31 05:08:48;;;;;;;31.88;3.35;;;6.60;97.60;;;;;;5050578;28;20029;-76
2024/01/31 05:11:14;;;;;;;17.77;2.60;;;6.60;94.60;;;;;;5051033;28;20040;-77
2024/01/31 05:13:40;;;;;;;18.98;2.70;;;6.70;94.10;;;;;;5052799;28;20104;-73
2024/01/31 05:16:09;;;;;;;34.00;3.60;;;6.60;94.30;;;;;;5052662;28;20021;-74
2024/01/31 05:18:35;;;;;;;22.63;3.17;;;6.70;93.20;;;;;;5052744;28;20112;-73
2024/01/31 05:21:01;;;;;;;25.95;3.22;;;6.70;86.50;;;;;;5053144;28;20029;-73
2024/01/31 05:23:27;;;;;;;31.23;3.95;;;;;;;;;;5053281;28;20031;-74
2024/01/31 05:25:54;;;;;;;24.95;3.88;;;;;;;;;;5053637;28;20032;-74
2024/01/31 05:28:20;;;;;;;23.98;3.85;;;;;;;;;;5054679;28;20496;-72
2024/01/31 05:30:46;;;;;;;22.25;3.30;;;;;;;;;;5053256;28;20048;-74
2024/01/31 05:33:12;;;;;;;14.93;2.47;;;;;;;;;;5052871;28;20031;-73
2024/01/31 05:35:39;;;;;;;14.63;3.03;;;;;;;;;;5052634;28;20391;-74
2024/01/31 05:38:05;;;;;;;18.98;2.88;;;;;;;;;;5052430;28;20053;-74
2024/01/31 05:40:31;;;;;;;17.38;2.90;;;;;;;;;;5053095;28;20029;-76
2024/01/31 05:42:57;;;;;;;26.80;3.70;;;;;;;;;;5053039;28;20028;-75
2024/01/31 05:45:24;;;;;;;19.75;3.05;;;;;;;;;;5052964;28;20471;-74
2024/01/31 05:47:50;;;;;;;19.73;2.65;;;;;;;;;;5054872;28;20017;-78
2024/01/31 05:50:16;;;;;;;18.00;2.50;;;;;;;;;;5052984;28;20456;-75
2024/01/31 05:52:42;;;;;;;22.80;2.90;;;;;;;;;;5052402;28;20373;-74
2024/01/31 05:55:14;;;;;;;19.42;2.85;;;;;;;;;;5052003;28;20071;-75
2024/01/31 05:57:40;;;;;;;21.52;2.30;;;;;;;;;;5051927;28;20419;-75
2024/01/31 06:00:09;;;;;;;25.17;3.97;;;;;;;;;;5053039;28;20013;-77
2024/01/31 06:02:35;;;;;;;17.90;3.50;;;;;;;;;;5054415;28;20349;-77
2024/01/31 06:05:01;;;;;;;17.48;2.78;;;;;;;;;;5052056;28;20021;-74
2024/01/31 06:07:27;;;;;;;15.98;2.67;;;;;;;;;;5051556;28;20021;-75
2024/01/31 06:09:54;;;;;;;24.95;2.97;;;;;;;;;;5051265;28;20021;-75
2024/01/31 06:12:20;;;;;;;28.10;3.40;;;;;;;;;;5052817;28;20020;-75
2024/01/31 06:14:46;;;;;;;24.95;3.85;;;;;;;;;;5052307;28;20021;-79
2024/01/31 06:17:14;;;;;;;21.67;3.78;;;;;;;;;;5052730;28;20040;-77
2024/01/31 06:19:40;;;;;;;16.08;2.65;;;;;;;;;;5053935;28;20017;-80
2024/01/31 06:22:07;;;;;;;19.10;4.25;;;;;;;;;;5054141;28;20021;-78
2024/01/31 06:24:33;;;;;;;26.42;3.40;;;;;;;;;;5053098;28;20032;-77
2024/01/31 06:26:59;;;;;;;17.00;3.00;;;;;;;;;;5052487;28;20028;-75
2024/01/31 06:29:25;;;;;;;26.80;3.00;;;;;;;;;;5051712;28;20025;-77
2024/01/31 06:31:54;;;;;;;26.40;2.78;;;;;;;;;;5051725;28;20472;-75
2024/01/31 06:34:21;;;;;;;19.80;3.10;;;;;;;;;;5048746;28;20021;-73
2024/01/31 06:36:47;;;;;;;24.85;2.60;;;;;;;;;;5050621;28;20017;-74
2024/01/31 06:39:13;;;;;;;25.65;2.75;;;;;;;;;;5053957;28;20038;-74
2024/01/31 06:41:39;;;;;;;21.55;3.10;;;;;;;;;;5055258;28;20029;-74
2024/01/31 06:44:05;;;;;;;24.40;3.22;;;;;;;;;;5047454;28;20076;-74
2024/01/31 06:46:31;;;;;;;24.55;3.20;;;;;;;;;;5051367;28;20036;-74
2024/01/31 06:48:58;;;;;;;32.90;3.60;;;;;;;;;;5049848;28;20021;-74
2024/01/31 06:51:24;;;;;;;20.73;2.90;;;;;;;;;;5048055;28;20017;-76
2024/01/31 06:53:50;;;;;;;21.63;2.58;;;;;;;;;;5051202;28;20056;-77
2024/01/31 06:56:19;;;;;;;16.05;2.45;;;;;;;;;;5052298;28;20025;-78
2024/01/31 06:58:46;;;;;;;23.75;2.75;;;;;;;;;;5051583;28;20545;-76
2024/01/31 07:01:16;;;;;;;16.80;3.00;;;;;;;;;;5052557;28;20369;-79
2024/01/31 07:03:42;;;;;;;23.63;3.33;;;;;;;;;;5052466;28;20504;-75
2024/01/31 07:06:08;;;;;;;28.27;3.30;;;;;;;;;;5053681;28;20028;-75
2024/01/31 07:08:34;;;;;;;23.88;3.40;;;;;;;;;;5051916;28;20021;-74
2024/01/31 07:11:00;;;;;;;18.00;2.85;;;;;;;;;;5047805;28;20021;-74
2024/01/31 07:13:26;;;;;;;22.30;3.00;;;;;;;;;;5051631;28;20075;-75
2024/01/31 07:15:52;;;;;;;27.30;2.90;;;;;;;;;;5051118;28;20017;-74
2024/01/31 07:18:18;;;;;;;37.10;4.90;;;;;;;;;;5048954;28;20052;-74
2024/01/31 07:20:45;;;;;;;29.65;3.33;;;;;;;;;;5053050;28;20025;-79
2024/01/31 07:23:11;;;;;;;21.48;3.35;;;;;;;;;;5052985;28;20039;-73
2024/01/31 07:25:39;;;;;;;19.30;2.58;;;;;;;;;;5044785;28;20025;-76
2024/01/31 07:28:05;;;;;;;22.45;4.13;;;;;;;;;;5045999;28;20024;-76
2024/01/31 07:30:32;;;;;;;25.38;3.00;;;;;;;;;;5058487;28;20033;-77
2024/01/31 07:32:58;;;;;;;17.38;3.47;;;;;;;;;;5055062;28;20086;-77
2024/01/31 07:35:25;;;;;;;24.88;3.38;;;;;;;;;;5051580;28;20025;-77
2024/01/31 07:37:51;;;;;;;21.75;2.97;;;;;;;;;;5055573;28;20092;-77
2024/01/31 07:40:18;;;;;;;21.90;3.15;;;;;;;;;;5055861;28;20044;-77
2024/01/31 07:42:44;;;;;;;22.80;3.22;;;;;;;;;;5054604;28;20032;-77
2024/01/31 07:45:10;;;;;;;20.08;3.60;;;;;;;;;;5056164;28;20036;-78
2024/01/31 07:47:37;;;;;;;21.08;2.70;;;;;;;;;;5058088;28;20025;-79
2024/01/31 07:50:04;;;;;;;25.08;2.95;;;;;;;;;;5057177;28;20025;-76
2024/01/31 07:52:30;;;;;;;22.15;3.00;;;;;;;;;;5055989;28;20021;-76
2024/01/31 07:54:56;;;;;;;27.58;3.50;;;;;;;;;;5055457;28;20163;-78
2024/01/31 07:57:22;;;;;;;22.08;2.63;;;;;;;;;;5055583;28;20032;-78
2024/01/31 07:59:48;;;;;;;23.48;3.42;;;;;;;;;;5054995;28;20052;-74
2024/01/31 08:02:14;;;;;;;20.05;2.83;;;;;;;;;;5054060;28;20021;-72
2024/01/31 08:04:41;;;;;;;29.63;3.00;;;;;;;;;;5054149;28;20029;-74
2024/01/31 08:07:07;;;;;;;24.95;3.28;;;;;;;;;;5053226;28;20032;-74
2024/01/31 08:09:33;;;;;;;19.48;2.78;;;;;;;;;;5053641;28;20020;-73
2024/01/31 08:12:00;;;;;;;20.20;2.65;;;;;;;;;;5054393;28;20024;-75
2024/01/31 08:14:26;;;;;;;26.33;2.88;;;;;;;;;;5056855;28;20035;-75
2024/01/31 08:16:53;;;;;;;31.35;3.10;;;;;;;;;;5055233;28;20163;-78
2024/01/31 08:19:19;;;;;;;25.98;2.80;;;;;;;;;;5053514;28;20527;-75
2024/01/31 08:21:44;;;;;;;28.10;3.10;;;7.10;18.20;;;;;;5057845;28;20395;-80
2024/01/31 08:24:10;;;;;;;20.38;2.55;;;7.10;19.00;;;;;;5055383;28;20055;-78
2024/01/31 08:26:36;;;;;;;24.75;2.67;;;7.10;16.60;;;;;;5056376;28;20032;-79
2024/01/31 08:29:01;;;;;;;23.77;2.58;;;7.10;19.00;;;;;;5052880;28;20498;-77
2024/01/31 08:31:27;;;;;;;19.52;2.90;;;7.10;19.70;;;;;;5053479;28;20109;-74
2024/01/31 08:33:53;;;;;;;20.65;3.00;;;7.10;19.20;;;;;;5053290;28;20021;-74
2024/01/31 08:36:18;;;;;;;21.45;3.45;;;7.10;15.50;;;;;;5054412;28;20079;-76
2024/01/31 08:38:44;;;;;;;24.08;3.08;;;7.10;16.80;;;;;;5053813;28;20109;-74
2024/01/31 08:41:11;;;;;;;19.75;3.00;;;7.10;14.80;;;;;;5054404;28;20079;-74
2024/01/31 08:43:36;;;;;;;20.20;3.00;;;7.10;15.30;;;;;;5053386;28;20028;-76
2024/01/31 08:46:02;;;;;;;16.92;3.13;;;7.10;10.20;;;;;;5053664;28;20020;-73
2024/01/31 08:48:28;;;;;;;29.48;3.80;;;7.10;17.50;;;;;;5052688;28;20031;-74
2024/01/31 08:50:53;;;;;;;20.20;2.85;;;7.10;14.70;;;;;;5053015;28;20025;-75
2024/01/31 08:53:19;;;;;;;28.35;5.10;;;7.20;12.00;;;;;;5053282;28;20021;-73
2024/01/31 08:55:44;;;;;;;23.90;3.33;;;7.20;5.40;;;;;;5053441;28;20108;-74
2024/01/31 08:58:10;;;;;;;25.63;2.83;;;7.30;1.00;;;;;;5053365;28;20036;-73
2024/01/31 09:00:36;;;;;;;23.55;3.35;;;7.20;1.00;;;;;;5051626;28;20051;-73
2024/01/31 09:03:03;;;;;;;30.20;3.75;;;7.20;1.00;;;;;;5053051;28;20021;-74
2024/01/31 09:05:29;;;;;;;20.83;2.88;;;7.30;1.00;;;;;;5052591;28;20017;-73
2024/01/31 09:07:55;;;;;;;27.08;3.47;;;7.40;1.00;;;;;;5052407;28;20032;-73
2024/01/31 09:10:21;;;;;;;22.08;3.25;;;7.40;1.00;;;;;;5052447;28;20430;-74
2024/01/31 09:12:47;;;;;;;22.83;3.13;;;7.40;1.00;;;;;;5052741;28;20024;-73
2024/01/31 09:15:13;;;;;;;22.17;2.53;;;7.40;1.00;;;;;;5052608;28;20021;-74
2024/01/31 09:17:39;;;;;;;17.45;2.22;;;7.50;1.00;;;;;;5052210;28;20377;-74
2024/01/31 09:20:06;;;;;;;25.13;2.40;;;8.00;1.00;;;;;;5052433;28;20061;-75
2024/01/31 09:22:32;;;;;;;24.65;2.72;;;8.60;1.00;;;;;;5055352;28;20440;-74
2024/01/31 09:24:57;;;;;;;19.73;2.92;;;9.50;1.00;;;;;;5051846;28;20104;-75
2024/01/31 09:27:23;;;;;;;22.83;2.83;;;10.60;1.00;;;;;;5051564;28;20102;-74
2024/01/31 09:29:48;;;;;;;20.45;2.50;;;11.40;1.00;;;;;;5051993;28;20039;-73
2024/01/31 09:32:17;;;;;;;13.05;2.67;;;12.20;1.00;;;;;;5051807;28;20018;-73
2024/01/31 09:34:43;;;;;;;14.18;2.35;;;12.70;1.00;;;;;;5052163;28;20029;-74
2024/01/31 09:37:09;;;;;;;17.83;2.92;;;12.60;1.00;;;;;;5052254;28;20029;-74
2024/01/31 09:39:34;;;;;;;18.02;2.67;;;12.30;99.90;;;;;;5052049;28;20029;-74
2024/01/31 09:42:00;;;;;;;26.83;2.88;;;11.90;1.00;;;;;;5053267;28;20036;-75
2024/01/31 09:44:26;;;;;;;20.75;2.92;;;11.30;1.00;;;;;;5051956;28;20021;-74
2024/01/31 09:46:53;;;;;;;18.48;3.45;;;10.90;1.00;;;;;;5051791;28;20195;-76
2024/01/31 09:49:18;;;;;;;16.98;2.47;;;10.50;99.90;;;;;;5053220;28;20057;-77
2024/01/31 09:51:44;;;;;;;15.40;2.95;;;10.30;1.00;;;;;;5052713;28;20053;-74
2024/01/31 09:54:10;;;;;;;20.02;3.35;;;10.10;99.90;;;;;;5054474;28;20472;-73
2024/01/31 09:56:36;;;;;;;19.15;2.35;;;9.90;18.20;;;;;;5052803;28;20021;-72
2024/01/31 09:59:03;;;;;;;20.83;2.83;;;9.70;99.90;;;;;;5053411;28;20063;-74
2024/01/31 10:01:29;;;;;;;30.63;3.22;;;9.40;99.90;;;;;;5074097;28;20024;-74
2024/01/31 10:03:57;;;;;;;23.83;2.83;;;9.10;1.00;;;;;;5073122;28;20024;-74
2024/01/31 10:06:29;;;;;;;18.33;2.58;;;9.00;99.90;;;;;;5075921;28;20055;-74
2024/01/31 10:08:58;;;;;;;19.00;2.78;;;9.00;99.90;;;;;;5071367;28;20028;-74
2024/01/31 10:11:25;;;;;;;17.17;2.75;;;8.90;99.90;;;;;;5071479;28;20332;-75
2024/01/31 10:13:51;;;;;;;23.25;3.08;;;8.80;99.90;;;;;;5071501;28;20044;-75
2024/01/31 10:16:17;;;;;;;27.25;4.32;;;8.80;99.90;;;;;;5070932;28;20503;-74
2024/01/31 10:18:43;;;;;;;38.10;10.90;;;8.60;99.90;;;;;;5070641;28;20086;-74
2024/01/31 10:21:10;;;;;;;27.35;4.45;;;8.60;99.90;;;;;;5053969;28;20427;-74
2024/01/31 10:23:36;;;;;;;27.27;4.45;;;8.50;99.90;;;;;;5050606;28;20254;-75
2024/01/31 10:26:02;;;;;;;22.77;3.90;;;8.40;99.90;;;;;;5066969;28;20103;-75
2024/01/31 10:28:28;;;;;;;19.02;3.20;;;8.30;1.00;;;;;;5071741;28;20017;-75
2024/01/31 10:30:55;;;;;;;31.60;4.93;;;8.20;1.00;;;;;;5071076;28;20198;-75
2024/01/31 10:33:22;;;;;;;22.02;3.75;;;8.30;1.00;;;;;;5055704;28;20017;-74
2024/01/31 10:35:48;;;;;;;23.42;3.20;;;8.30;1.00;;;;;;5050850;28;20033;-72
2024/01/31 10:38:14;;;;;;;22.33;3.08;;;8.30;1.00;;;;;;5051497;28;20495;-73
2024/01/31 10:40:41;;;;;;;29.35;2.90;;;8.40;1.00;;;;;;5051445;28;20037;-72
2024/01/31 10:43:09;;;;;;;27.80;2.25;;;8.40;99.90;;;;;;5051159;28;20108;-72
2024/01/31 10:45:35;;;;;;;18.50;2.63;;;8.30;1.00;;;;;;5051540;28;20021;-73
2024/01/31 10:48:04;;;;;;;20.70;2.83;;;8.30;99.90;;;;;;5050972;28;20480;-73
2024/01/31 10:50:31;;;;;;;26.27;2.70;;;8.30;99.90;;;;;;5051293;28;20049;-74
2024/01/31 10:52:58;;;;;;;15.27;2.50;;;8.20;99.90;;;;;;5051235;28;20477;-74
2024/01/31 10:55:25;;;;;;;21.30;2.80;;;8.10;1.00;;;;;;5051160;28;20024;-73
2024/01/31 10:57:51;;;;;;;20.33;2.70;;;8.20;1.00;;;;;;5051067;28;20048;-74
2024/01/31 11:00:28;;;;;;;21.58;2.80;;;8.20;1.00;;;;;;5051070;28;20453;-74
2024/01/31 11:02:56;;;;;;;13.00;2.00;;;8.20;99.90;;;;;;5051744;28;20017;-75
2024/01/31 11:05:22;;;;;;;14.27;2.08;;;8.10;99.90;;;;;;5055155;28;20029;-75
2024/01/31 11:07:48;;;;;;;12.70;2.20;;;8.20;99.90;;;;;;5055190;28;20574;-74
2024/01/31 11:10:18;;;;;;;10.32;1.90;;;8.20;99.90;;;;;;5055528;28;20036;-73
2024/01/31 11:12:56;;;;;;;25.27;3.08;;;8.30;1.00;;;;;;5055154;28;20013;-73
2024/01/31 11:15:34;;;;;;;12.15;1.80;;;8.10;1.00;;;;;;5054158;28;20024;-76
2024/01/31 11:18:14;;;;;;;15.90;2.72;;;8.10;1.00;;;;;;5053505;28;20388;-78
2024/01/31 11:20:52;;;;;;;18.35;2.00;;;8.10;1.00;;;;;;5054457;28;20017;-74
2024/01/31 11:23:23;;;;;;;8.82;1.60;;;8.00;1.00;;;;;;5054642;28;20029;-76
2024/01/31 11:25:50;;;;;;;14.18;2.35;;;7.90;1.00;;;;;;5053723;28;20515;-76
2024/01/31 11:28:17;;;;;;;13.07;2.03;;;7.90;1.00;;;;;;5052480;28;20167;-75
2024/01/31 11:30:42;;;;;;;12.50;2.17;;;7.80;1.00;;;;;;5053904;28;20013;-73
2024/01/31 11:33:08;;;;;;;16.73;2.15;;;7.70;1.00;;;;;;5054292;28;20082;-73
2024/01/31 11:35:34;;;;;;;16.13;2.63;;;7.60;1.00;;;;;;5053951;28;20053;-73
2024/01/31 11:38:00;;;;;;;13.73;1.70;;;7.50;1.00;;;;;;5054408;28;20108;-73
2024/01/31 11:40:26;;;;;;;15.40;2.40;;;7.50;1.00;;;;;;5053962;28;20037;-74
2024/01/31 11:42:54;;;;;;;8.77;1.65;;;7.40;1.00;;;;;;5054893;28;20024;-74
2024/01/31 11:45:24;;;;;;;16.13;2.28;;;7.30;1.00;;;;;;5053995;28;20024;-75
2024/01/31 11:47:52;;;;;;;12.88;2.42;;;7.30;1.00;;;;;;5053954;28;20013;-74
2024/01/31 11:50:18;;;;;;;10.63;2.05;;;7.30;1.00;;;;;;5053469;28;20111;-73
2024/01/31 11:52:45;;;;;;;10.00;1.90;;;7.30;1.00;;;;;;5054925;28;20053;-74
2024/01/31 11:55:11;;;;;;;11.55;1.80;;;7.50;1.00;;;;;;5054381;28;20108;-72
2024/01/31 11:57:37;;;;;;;16.35;2.00;;;7.50;1.00;;;;;;5052337;28;20100;-74
2024/01/31 12:00:06;;;;;;;13.85;2.38;;;7.50;1.00;;;;;;5053953;28;20024;-75
2024/01/31 12:02:36;;;;;;;11.45;1.90;;;7.40;1.00;;;;;;5052959;28;20021;-74
2024/01/31 12:05:02;;;;;;;13.68;2.22;;;7.50;1.00;;;;;;5052191;28;20024;-73
2024/01/31 12:07:28;;;;;;;11.65;2.17;;;7.40;1.00;;;;;;5052081;28;20029;-75
2024/01/31 12:09:54;;;;;;;17.65;2.60;;;7.40;1.00;;;;;;5052966;28;20025;-74
2024/01/31 12:12:20;;;;;;;15.73;2.00;;;7.40;1.00;;;;;;5053564;28;20029;-74
2024/01/31 12:14:45;;;;;;;14.38;2.10;;;7.20;1.00;;;;;;5051749;28;20025;-75
2024/01/31 12:17:19;;;;;;;12.70;2.10;;;7.20;1.00;;;;;;5053541;28;20032;-75
2024/01/31 12:19:45;;;;;;;11.55;1.70;;;7.10;1.00;;;;;;5054262;28;20035;-75
2024/01/31 12:22:11;;;;;;;11.95;2.08;;;7.10;1.00;;;;;;5054050;28;20107;-74
2024/01/31 12:24:38;;;;;;;11.85;1.95;;;7.20;1.00;;;;;;5053901;28;20028;-74
2024/01/31 12:27:04;;;;;;;8.02;1.50;;;7.10;1.00;;;;;;5052687;28;20036;-74
2024/01/31 12:29:30;;;;;;;10.27;1.73;;;7.20;1.00;;;;;;5053447;28;20036;-75
2024/01/31 12:31:56;;;;;;;17.88;2.05;;;7.30;1.00;;;;;;5053302;28;20033;-75
2024/01/31 12:34:22;;;;;;;11.98;2.25;;;7.10;1.00;;;;;;5054083;28;20024;-75
2024/01/31 12:36:48;;;;;;;11.80;3.13;;;7.10;1.00;;;;;;5054840;28;20694;-74
2024/01/31 12:39:19;;;;;;;9.60;2.63;;;7.20;1.00;;;;;;5054551;28;20044;-75
2024/01/31 12:41:45;;;;;;;7.45;2.42;;;7.20;1.00;;;;;;5055085;28;20024;-76
2024/01/31 12:44:11;;;;;;;6.07;2.35;;;7.20;1.00;;;;;;5054992;28;20029;-75
2024/01/31 12:46:37;;;;;;;7.47;2.30;;;7.20;1.00;;;;;;5054545;28;20054;-74
2024/01/31 12:49:03;;;;;;;11.77;2.45;;;7.10;1.00;;;;;;5052908;28;20044;-74
2024/01/31 12:51:28;;;;;;;6.88;2.63;;;7.10;1.00;;;;;;5054412;28;20036;-75
2024/01/31 12:53:54;;;;;;;6.88;2.75;;;7.10;1.00;;;;;;5053947;28;20051;-75
2024/01/31 12:56:20;;;;;;;12.32;3.63;;;7.00;1.00;;;;;;5054246;28;20032;-75
2024/01/31 12:58:45;;;;;;;11.15;4.70;;;7.10;1.00;;;;;;5053375;28;20024;-75
2024/01/31 13:01:11;;;;;;;10.15;4.03;;;6.90;1.00;;;;;;5057065;28;20033;-74
2024/01/31 13:03:37;;;;;;;9.70;4.10;;;7.00;1.00;;;;;;5053842;28;20036;-74
2024/01/31 13:06:03;;;;;;;10.40;4.10;;;7.00;1.00;;;;;;5053839;28;20025;-76